createdAt,value
2023-08-11T00:01:17.552Z,75283.56
2023-08-11T00:02:53.927Z,75287.53
2023-08-11T00:04:26.854Z,75295.44
2023-08-11T00:05:59.898Z,75295.44
2023-08-11T00:07:32.616Z,75295.44
2023-08-11T00:09:08.945Z,75299.38
2023-08-11T00:10:42.467Z,75303.34
2023-08-11T00:12:15.391Z,75311.25
2023-08-11T00:13:48.298Z,75317.19
2023-08-11T00:15:21.093Z,75311.25
2023-08-11T00:16:54.250Z,75313.22
2023-08-11T00:18:27.056Z,75323.09
2023-08-11T00:20:00.050Z,75327.06
2023-08-11T00:21:33.037Z,75331.00
2023-08-11T00:23:06.642Z,75331.00
2023-08-11T00:24:39.587Z,75333.00
2023-08-11T00:26:12.455Z,75334.97
2023-08-11T00:27:45.278Z,75338.91
2023-08-11T00:29:18.115Z,75344.84
2023-08-11T00:30:51.638Z,75346.81
2023-08-11T00:32:25.126Z,75348.81
2023-08-11T00:33:58.275Z,75350.78
2023-08-11T00:35:31.473Z,75354.72
2023-08-11T00:37:05.115Z,75354.72
2023-08-11T00:38:39.337Z,75350.78
2023-08-11T00:40:13.439Z,75354.72
2023-08-11T00:41:47.211Z,75352.75
2023-08-11T00:43:20.235Z,75354.72
2023-08-11T00:44:53.354Z,75362.63
2023-08-11T00:46:26.610Z,75366.59
2023-08-11T00:47:59.767Z,75378.47
2023-08-11T00:49:32.984Z,75396.25
2023-08-11T00:51:07.084Z,75374.50
2023-08-11T00:52:40.643Z,75382.41
2023-08-11T00:54:14.648Z,75386.38
2023-08-11T00:55:47.573Z,75386.38
2023-08-11T00:57:20.355Z,75380.44
2023-08-11T00:58:54.742Z,75386.38
2023-08-11T01:00:29.501Z,75390.31
2023-08-11T01:02:03.193Z,75386.38
2023-08-11T01:03:36.099Z,75380.44
2023-08-11T01:05:10.373Z,75374.50
2023-08-11T01:06:48.102Z,75366.59
2023-08-11T01:08:35.622Z,75333.00
2023-08-11T01:10:18.324Z,75283.56
2023-08-11T01:12:03.988Z,75224.28
2023-08-11T01:13:44.215Z,75192.63
2023-08-11T01:15:24.000Z,75133.34
2023-08-11T01:17:01.583Z,75093.81
2023-08-11T01:18:34.629Z,75066.13
2023-08-11T01:20:12.265Z,75052.31
2023-08-11T01:21:48.442Z,75010.78
2023-08-11T01:23:23.154Z,74993.00
2023-08-11T01:24:57.012Z,74979.16
2023-08-11T01:26:31.796Z,74971.25
2023-08-11T01:28:05.074Z,74915.91
2023-08-11T01:29:39.487Z,74874.41
2023-08-11T01:31:12.444Z,74900.09
2023-08-11T01:32:46.467Z,74923.81
2023-08-11T01:34:20.573Z,74823.00
2023-08-11T01:35:54.125Z,74793.38
2023-08-11T01:37:27.188Z,74738.03
2023-08-11T01:39:00.180Z,74658.97
2023-08-11T01:40:33.456Z,74607.59
2023-08-11T01:42:07.125Z,74572.00
2023-08-11T01:43:40.949Z,74607.59
2023-08-11T01:45:17.073Z,74595.72
2023-08-11T01:46:54.417Z,74512.72
2023-08-11T01:48:28.174Z,74443.53
2023-08-11T01:50:04.025Z,74437.63
2023-08-11T01:51:36.877Z,74409.94
2023-08-11T01:53:10.611Z,74338.78
2023-08-11T01:54:44.911Z,74338.78
2023-08-11T01:56:19.311Z,74321.00
2023-08-11T01:57:59.190Z,74394.13
2023-08-11T01:59:33.738Z,74473.19
2023-08-11T02:01:06.541Z,74508.75
2023-08-11T02:02:39.660Z,74467.25
2023-08-11T02:04:12.714Z,74461.31
2023-08-11T02:05:45.819Z,74449.47
2023-08-11T02:07:18.585Z,74481.09
2023-08-11T02:08:51.415Z,74469.22
2023-08-11T02:10:24.654Z,74526.53
2023-08-11T02:11:57.841Z,74708.38
2023-08-11T02:13:31.009Z,74623.38
2023-08-11T02:15:08.747Z,74621.41
2023-08-11T02:16:41.702Z,74619.44
2023-08-11T02:18:18.118Z,74560.16
2023-08-11T02:19:51.327Z,74461.31
2023-08-11T02:21:24.224Z,74485.03
2023-08-11T02:22:56.803Z,74402.03
2023-08-11T02:24:30.428Z,74429.72
2023-08-11T02:26:07.549Z,74449.47
2023-08-11T02:27:40.965Z,74429.72
2023-08-11T02:29:13.810Z,74342.75
2023-08-11T02:30:47.737Z,74388.19
2023-08-11T02:32:21.227Z,74279.50
2023-08-11T02:33:54.086Z,74358.56
2023-08-11T02:35:26.985Z,74382.28
2023-08-11T02:37:00.920Z,74370.41
2023-08-11T02:38:36.352Z,74378.31
2023-08-11T02:40:10.886Z,74512.72
2023-08-11T02:41:44.373Z,74459.34
2023-08-11T02:43:17.814Z,74376.34
2023-08-11T02:44:50.794Z,74334.84
2023-08-11T02:46:24.205Z,74255.78
2023-08-11T02:47:57.670Z,74196.50
2023-08-11T02:49:41.091Z,74241.97
2023-08-11T02:51:16.058Z,74236.03
2023-08-11T02:52:52.281Z,74164.88
2023-08-11T02:54:32.661Z,74218.25
2023-08-11T02:56:14.072Z,74156.97
2023-08-11T02:57:52.465Z,74149.06
2023-08-11T02:59:29.025Z,74301.25
2023-08-11T03:01:04.795Z,74398.09
2023-08-11T03:02:38.332Z,74317.06
2023-08-11T03:04:11.295Z,74269.63
2023-08-11T03:05:46.936Z,74279.50
2023-08-11T03:07:19.764Z,74319.03
2023-08-11T03:08:53.945Z,74220.22
2023-08-11T03:10:27.264Z,74145.13
2023-08-11T03:12:00.301Z,74030.50
2023-08-11T03:13:33.736Z,74083.88
2023-08-11T03:15:09.596Z,74048.28
2023-08-11T03:16:45.902Z,74121.41
2023-08-11T03:18:22.140Z,74032.47
2023-08-11T03:19:55.373Z,73896.13
2023-08-11T03:21:28.430Z,73977.16
2023-08-11T03:23:01.412Z,74018.66
2023-08-11T03:24:34.155Z,73917.88
2023-08-11T03:26:07.055Z,73874.41
2023-08-11T03:27:43.893Z,73987.03
2023-08-11T03:29:21.867Z,73998.88
2023-08-11T03:30:55.504Z,74034.47
2023-08-11T03:32:28.337Z,74032.47
2023-08-11T03:34:05.270Z,74058.19
2023-08-11T03:35:38.458Z,74113.50
2023-08-11T03:37:13.135Z,74046.31
2023-08-11T03:38:47.226Z,74058.19
2023-08-11T03:40:20.677Z,74147.09
2023-08-11T03:41:58.887Z,74081.88
2023-08-11T03:43:31.994Z,74008.78
2023-08-11T03:45:06.069Z,74000.88
2023-08-11T03:46:40.773Z,74026.56
2023-08-11T03:48:15.373Z,74077.94
2023-08-11T03:49:48.277Z,74066.06
2023-08-11T03:51:22.402Z,74030.50
2023-08-11T03:52:57.912Z,74056.19
2023-08-11T03:54:43.385Z,73909.97
2023-08-11T03:56:19.905Z,73994.94
2023-08-11T03:57:56.683Z,73965.28
2023-08-11T03:59:32.255Z,73813.13
2023-08-11T04:01:06.119Z,73872.41
2023-08-11T04:02:40.933Z,73821.03
2023-08-11T04:04:16.163Z,73661.00
2023-08-11T04:05:49.301Z,73686.69
2023-08-11T04:07:28.777Z,73623.44
2023-08-11T04:09:04.008Z,73647.16
2023-08-11T04:10:37.656Z,73520.69
2023-08-11T04:12:11.162Z,73459.44
2023-08-11T04:13:44.217Z,73394.25
2023-08-11T04:15:19.895Z,73382.38
2023-08-11T04:16:54.170Z,73307.31
2023-08-11T04:18:27.465Z,73398.19
2023-08-11T04:20:02.352Z,73289.53
2023-08-11T04:21:36.506Z,73358.69
2023-08-11T04:23:13.002Z,73327.06
2023-08-11T04:24:46.964Z,73297.44
2023-08-11T04:26:20.672Z,73323.13
2023-08-11T04:27:54.001Z,73346.81
2023-08-11T04:29:27.501Z,73275.69
2023-08-11T04:31:02.455Z,73212.47
2023-08-11T04:32:37.586Z,73172.97
2023-08-11T04:34:12.023Z,73123.56
2023-08-11T04:35:45.252Z,73196.66
2023-08-11T04:37:20.027Z,73172.97
2023-08-11T04:38:53.980Z,73220.38
2023-08-11T04:40:26.894Z,73457.47
2023-08-11T04:42:03.107Z,73408.06
2023-08-11T04:43:36.482Z,73311.25
2023-08-11T04:45:15.260Z,73449.56
2023-08-11T04:46:48.484Z,73368.56
2023-08-11T04:48:21.520Z,73516.75
2023-08-11T04:49:59.090Z,73627.41
2023-08-11T04:51:33.705Z,73570.09
2023-08-11T04:53:07.091Z,73552.31
2023-08-11T04:54:40.415Z,73682.72
2023-08-11T04:56:14.145Z,73605.66
2023-08-11T04:57:47.673Z,73578.00
2023-08-11T04:59:20.821Z,73445.63
2023-08-11T05:00:54.436Z,73331.03
2023-08-11T05:02:28.351Z,73334.97
2023-08-11T05:04:02.269Z,73471.31
2023-08-11T05:05:35.610Z,73579.97
2023-08-11T05:07:09.206Z,73690.63
2023-08-11T05:08:42.670Z,73753.84
2023-08-11T05:10:16.037Z,73805.22
2023-08-11T05:11:49.457Z,73785.47
2023-08-11T05:13:22.952Z,73659.00
2023-08-11T05:14:55.908Z,73651.09
2023-08-11T05:16:29.770Z,73686.69
2023-08-11T05:18:03.384Z,73603.69
2023-08-11T05:19:38.261Z,73678.78
2023-08-11T05:21:12.034Z,73690.63
2023-08-11T05:22:49.109Z,73700.50
2023-08-11T05:24:23.404Z,73706.44
2023-08-11T05:25:56.482Z,73678.78
2023-08-11T05:27:29.800Z,73674.81
2023-08-11T05:29:03.599Z,73740.03
2023-08-11T05:30:36.859Z,73710.38
2023-08-11T05:32:10.193Z,73740.03
2023-08-11T05:33:43.329Z,73734.09
2023-08-11T05:35:16.581Z,73759.78
2023-08-11T05:36:50.056Z,73753.84
2023-08-11T05:38:24.196Z,73643.19
2023-08-11T05:39:57.304Z,73730.16
2023-08-11T05:41:30.256Z,73856.63
2023-08-11T05:43:03.623Z,73639.25
2023-08-11T05:44:37.158Z,73688.66
2023-08-11T05:46:10.730Z,73765.72
2023-08-11T05:47:43.788Z,73730.16
2023-08-11T05:49:16.820Z,73643.19
2023-08-11T05:50:51.757Z,73607.63
2023-08-11T05:52:25.404Z,73564.16
2023-08-11T05:53:58.991Z,73668.88
2023-08-11T05:55:32.280Z,73692.59
2023-08-11T05:57:05.514Z,73706.44
2023-08-11T05:58:39.149Z,73536.50
2023-08-11T06:00:13.165Z,73708.41
2023-08-11T06:01:46.209Z,73795.34
2023-08-11T06:03:19.515Z,73767.69
2023-08-11T06:04:53.043Z,73678.78
2023-08-11T06:06:28.179Z,73710.38
2023-08-11T06:08:06.764Z,73765.72
2023-08-11T06:09:40.846Z,73749.91
2023-08-11T06:11:13.957Z,73854.63
2023-08-11T06:12:47.392Z,73832.91
2023-08-11T06:14:20.397Z,73832.91
2023-08-11T06:15:53.540Z,73745.94
2023-08-11T06:17:27.535Z,73834.88
2023-08-11T06:19:01.105Z,73819.06
2023-08-11T06:20:41.814Z,73793.38
2023-08-11T06:22:15.367Z,73925.78
2023-08-11T06:23:48.732Z,73860.56
2023-08-11T06:25:22.531Z,73900.09
2023-08-11T06:26:56.003Z,73884.28
2023-08-11T06:28:29.746Z,73793.38
2023-08-11T06:30:05.662Z,73730.16
2023-08-11T06:31:38.656Z,73767.69
2023-08-11T06:33:11.809Z,73856.63
2023-08-11T06:34:44.920Z,73963.31
2023-08-11T06:36:17.929Z,74022.59
2023-08-11T06:37:51.010Z,73994.94
2023-08-11T06:39:23.990Z,73967.28
2023-08-11T06:40:56.946Z,73872.41
2023-08-11T06:42:29.908Z,73872.41
2023-08-11T06:44:14.735Z,73959.38
2023-08-11T06:45:47.887Z,73983.09
2023-08-11T06:47:20.890Z,73987.03
2023-08-11T06:48:53.991Z,74008.78
2023-08-11T06:50:28.312Z,74093.75
2023-08-11T06:52:01.674Z,74153.03
2023-08-11T06:53:34.605Z,74083.88
2023-08-11T06:55:08.166Z,74125.38
2023-08-11T06:56:41.365Z,74206.38
2023-08-11T06:58:14.481Z,74176.75
2023-08-11T06:59:47.674Z,74228.13
2023-08-11T07:01:21.267Z,74176.75
2023-08-11T07:02:54.539Z,74182.69
2023-08-11T07:04:27.948Z,74107.56
2023-08-11T07:06:02.689Z,74145.13
2023-08-11T07:07:35.956Z,74113.50
2023-08-11T07:09:09.734Z,74194.53
2023-08-11T07:10:42.773Z,74202.44
2023-08-11T07:12:16.229Z,74281.47
2023-08-11T07:13:49.372Z,74267.66
2023-08-11T07:15:22.550Z,74238.00
2023-08-11T07:16:55.592Z,74156.97
2023-08-11T07:18:29.283Z,74186.63
2023-08-11T07:20:03.078Z,74239.97
2023-08-11T07:21:36.762Z,74214.28
2023-08-11T07:23:10.138Z,74113.50
2023-08-11T07:24:43.382Z,74164.88
2023-08-11T07:26:16.636Z,74186.63
2023-08-11T07:27:49.940Z,74176.75
2023-08-11T07:29:23.227Z,74160.94
2023-08-11T07:30:56.704Z,74170.81
2023-08-11T07:32:30.602Z,74129.31
2023-08-11T07:34:04.885Z,74101.66
2023-08-11T07:35:38.280Z,74044.34
2023-08-11T07:37:11.653Z,74145.13
2023-08-11T07:38:45.054Z,74214.28
2023-08-11T07:40:18.787Z,74190.56
2023-08-11T07:41:52.664Z,74135.25
2023-08-11T07:43:25.724Z,74139.19
2023-08-11T07:44:58.934Z,74073.97
2023-08-11T07:46:33.276Z,74184.66
2023-08-11T07:48:07.731Z,74275.56
2023-08-11T07:49:41.358Z,74319.03
2023-08-11T07:51:16.136Z,74311.13
2023-08-11T07:52:52.428Z,74228.13
2023-08-11T07:54:26.293Z,74192.56
2023-08-11T07:56:00.078Z,74149.06
2023-08-11T07:57:33.439Z,74190.56
2023-08-11T07:59:06.506Z,74200.47
2023-08-11T08:00:39.608Z,74245.91
2023-08-11T08:02:14.614Z,74241.97
2023-08-11T08:03:47.987Z,74182.69
2023-08-11T08:05:21.398Z,74164.88
2023-08-11T08:06:55.162Z,74156.97
2023-08-11T08:08:28.117Z,74184.66
2023-08-11T08:10:01.607Z,74156.97
2023-08-11T08:11:34.657Z,74109.56
2023-08-11T08:13:07.696Z,74054.22
2023-08-11T08:14:40.598Z,74091.78
2023-08-11T08:16:13.996Z,74121.41
2023-08-11T08:17:47.151Z,74200.47
2023-08-11T08:19:21.751Z,74263.69
2023-08-11T08:20:54.700Z,74336.81
2023-08-11T08:22:27.856Z,74330.88
2023-08-11T08:24:01.596Z,74334.84
2023-08-11T08:25:34.739Z,74238.00
2023-08-11T08:27:08.591Z,74192.56
2023-08-11T08:28:42.102Z,74196.50
2023-08-11T08:30:15.645Z,74149.06
2023-08-11T08:31:48.734Z,74105.59
2023-08-11T08:33:21.745Z,74068.06
2023-08-11T08:34:54.813Z,74192.56
2023-08-11T08:36:28.545Z,74182.69
2023-08-11T08:38:01.648Z,74172.78
2023-08-11T08:39:34.446Z,74174.78
2023-08-11T08:41:10.505Z,74117.47
2023-08-11T08:42:44.111Z,74113.50
2023-08-11T08:44:17.120Z,74020.63
2023-08-11T08:45:52.823Z,74052.25
2023-08-11T08:47:28.000Z,74016.69
2023-08-11T08:49:19.297Z,73981.09
2023-08-11T08:50:53.208Z,74052.25
2023-08-11T08:52:26.304Z,74117.47
2023-08-11T08:53:59.804Z,74180.69
2023-08-11T08:55:33.597Z,74160.94
2023-08-11T08:57:12.931Z,74176.75
2023-08-11T08:58:47.385Z,74156.97
2023-08-11T09:00:20.636Z,74145.13
2023-08-11T09:01:55.110Z,74166.88
2023-08-11T09:03:28.441Z,74105.59
2023-08-11T09:05:01.628Z,74070.03
2023-08-11T09:06:36.145Z,74062.13
2023-08-11T09:08:09.671Z,74066.06
2023-08-11T09:09:43.929Z,74109.56
2023-08-11T09:11:17.769Z,74077.94
2023-08-11T09:12:51.885Z,74068.06
2023-08-11T09:14:25.303Z,74038.41
2023-08-11T09:16:00.860Z,74085.84
2023-08-11T09:17:39.241Z,74121.41
2023-08-11T09:19:13.494Z,74206.38
2023-08-11T09:20:50.549Z,74192.56
2023-08-11T09:22:27.105Z,74121.41
2023-08-11T09:23:59.981Z,74072.00
2023-08-11T09:25:34.010Z,74058.19
2023-08-11T09:27:08.297Z,74058.19
2023-08-11T09:28:41.669Z,74036.44
2023-08-11T09:30:15.246Z,74004.81
2023-08-11T09:31:50.843Z,74032.47
2023-08-11T09:33:23.955Z,74040.38
2023-08-11T09:34:56.840Z,74054.22
2023-08-11T09:36:30.131Z,74073.97
2023-08-11T09:38:03.184Z,74095.72
2023-08-11T09:39:38.032Z,74064.09
2023-08-11T09:41:13.171Z,74048.28
2023-08-11T09:42:46.584Z,74026.56
2023-08-11T09:44:20.826Z,73939.59
2023-08-11T09:45:55.688Z,73939.59
2023-08-11T09:47:30.358Z,73998.88
2023-08-11T09:49:03.390Z,73987.03
2023-08-11T09:50:38.171Z,73957.41
2023-08-11T09:52:13.143Z,73994.94
2023-08-11T09:53:48.495Z,74068.06
2023-08-11T09:55:22.964Z,74040.38
2023-08-11T09:56:56.975Z,74030.50
2023-08-11T09:58:31.014Z,74016.69
2023-08-11T10:00:07.318Z,73975.19
2023-08-11T10:01:43.656Z,73947.50
2023-08-11T10:03:24.087Z,73971.22
2023-08-11T10:05:00.344Z,74079.91
2023-08-11T10:06:34.971Z,74081.88
2023-08-11T10:08:12.755Z,74085.84
2023-08-11T10:09:48.511Z,74070.03
2023-08-11T10:11:24.027Z,74113.50
2023-08-11T10:13:04.451Z,74070.03
2023-08-11T10:14:40.419Z,74000.88
2023-08-11T10:16:14.598Z,74054.22
2023-08-11T10:17:48.683Z,74070.03
2023-08-11T10:19:22.474Z,74016.69
2023-08-11T10:20:57.880Z,73998.88
2023-08-11T10:22:31.739Z,73992.97
2023-08-11T10:24:06.237Z,73973.19
2023-08-11T10:25:39.242Z,73981.09
2023-08-11T10:27:12.535Z,73965.28
2023-08-11T10:28:46.386Z,74022.59
2023-08-11T10:30:19.993Z,74000.88
2023-08-11T10:32:00.556Z,74034.47
2023-08-11T10:33:33.731Z,74073.97
2023-08-11T10:35:19.982Z,74054.22
2023-08-11T10:36:57.786Z,74101.66
2023-08-11T10:38:34.844Z,74068.06
2023-08-11T10:40:10.818Z,74050.28
2023-08-11T10:41:47.414Z,74058.19
2023-08-11T10:43:32.332Z,74070.03
2023-08-11T10:45:14.262Z,74123.38
2023-08-11T10:46:49.696Z,74156.97
2023-08-11T10:48:24.647Z,74129.31
2023-08-11T10:49:58.041Z,74081.88
2023-08-11T10:51:34.860Z,74139.19
2023-08-11T10:53:22.209Z,74156.97
2023-08-11T10:54:55.212Z,74117.47
2023-08-11T10:56:30.825Z,74129.31
2023-08-11T10:58:15.489Z,74184.66
2023-08-11T10:59:48.777Z,74129.31
2023-08-11T11:01:22.318Z,74087.81
2023-08-11T11:02:55.457Z,74081.88
2023-08-11T11:04:33.740Z,74117.47
2023-08-11T11:06:07.534Z,74079.91
2023-08-11T11:07:42.501Z,74073.97
2023-08-11T11:09:17.012Z,74117.47
2023-08-11T11:10:51.194Z,74170.81
2023-08-11T11:12:24.657Z,74141.16
2023-08-11T11:13:58.471Z,74166.88
2023-08-11T11:15:37.874Z,74166.88
2023-08-11T11:17:12.299Z,74232.06
2023-08-11T11:18:48.955Z,74259.75
2023-08-11T11:20:22.102Z,74307.19
2023-08-11T11:21:55.769Z,74340.78
2023-08-11T11:23:28.910Z,74350.66
2023-08-11T11:25:05.952Z,74322.97
2023-08-11T11:26:39.248Z,74259.75
2023-08-11T11:28:14.166Z,74243.94
2023-08-11T11:29:47.261Z,74228.13
2023-08-11T11:31:23.338Z,74245.91
2023-08-11T11:32:56.381Z,74228.13
2023-08-11T11:34:29.532Z,74216.28
2023-08-11T11:36:02.995Z,74216.28
2023-08-11T11:37:38.488Z,74257.78
2023-08-11T11:39:11.916Z,74247.88
2023-08-11T11:40:45.448Z,74251.84
2023-08-11T11:42:18.713Z,74263.69
2023-08-11T11:43:52.621Z,74267.66
2023-08-11T11:45:27.547Z,74241.97
2023-08-11T11:47:00.661Z,74281.47
2023-08-11T11:48:33.645Z,74287.41
2023-08-11T11:50:09.005Z,74287.41
2023-08-11T11:51:43.349Z,74330.88
2023-08-11T11:53:16.788Z,74311.13
2023-08-11T11:54:54.246Z,74319.03
2023-08-11T11:56:31.777Z,74334.84
2023-08-11T11:58:05.053Z,74354.59
2023-08-11T11:59:37.855Z,74374.38
2023-08-11T12:01:22.475Z,74376.34
2023-08-11T12:02:56.069Z,74370.41
2023-08-11T12:04:29.486Z,74348.69
2023-08-11T12:06:05.663Z,74356.59
2023-08-11T12:07:38.573Z,74322.97
2023-08-11T12:09:11.800Z,74319.03
2023-08-11T12:10:49.638Z,74315.09
2023-08-11T12:12:25.743Z,74319.03
2023-08-11T12:14:01.070Z,74338.78
2023-08-11T12:15:34.865Z,74283.47
2023-08-11T12:17:07.947Z,74279.50
2023-08-11T12:18:41.445Z,74265.69
2023-08-11T12:20:16.288Z,74214.28
2023-08-11T12:21:49.662Z,74243.94
2023-08-11T12:23:22.745Z,74261.72
2023-08-11T12:24:55.596Z,74328.91
2023-08-11T12:26:28.807Z,74332.88
2023-08-11T12:28:03.609Z,74303.22
2023-08-11T12:29:36.638Z,74289.38
2023-08-11T12:31:11.623Z,74299.28
2023-08-11T12:32:47.614Z,74326.94
2023-08-11T12:34:21.911Z,74319.03
2023-08-11T12:35:54.929Z,74324.97
2023-08-11T12:37:27.831Z,74334.84
2023-08-11T12:39:00.900Z,74303.22
2023-08-11T12:40:34.405Z,74330.88
2023-08-11T12:42:07.836Z,74319.03
2023-08-11T12:43:41.398Z,74322.97
2023-08-11T12:45:15.049Z,74303.22
2023-08-11T12:46:48.557Z,74319.03
2023-08-11T12:48:21.531Z,74303.22
2023-08-11T12:49:54.750Z,74307.19
2023-08-11T12:51:28.126Z,74275.56
2023-08-11T12:53:02.130Z,74269.63
2023-08-11T12:54:35.407Z,74275.56
2023-08-11T12:56:08.764Z,74271.59
2023-08-11T12:57:42.262Z,74273.59
2023-08-11T12:59:16.040Z,74295.31
2023-08-11T13:00:49.352Z,74317.06
2023-08-11T13:02:22.655Z,74362.50
2023-08-11T13:03:57.125Z,74350.66
2023-08-11T13:05:31.235Z,74350.66
2023-08-11T13:07:04.409Z,74394.13
2023-08-11T13:08:37.515Z,74376.34
2023-08-11T13:10:14.505Z,74358.56
2023-08-11T13:11:48.085Z,74372.41
2023-08-11T13:13:31.237Z,74398.09
2023-08-11T13:15:04.747Z,74376.34
2023-08-11T13:16:38.829Z,74398.09
2023-08-11T13:18:12.541Z,74382.28
2023-08-11T13:19:45.929Z,74382.28
2023-08-11T13:21:18.996Z,74406.00
2023-08-11T13:22:52.217Z,74409.94
2023-08-11T13:24:25.264Z,74433.66
2023-08-11T13:25:59.469Z,74429.72
2023-08-11T13:27:32.499Z,74433.66
2023-08-11T13:29:06.375Z,74433.66
2023-08-11T13:30:43.162Z,74429.72
2023-08-11T13:32:16.526Z,74455.41
2023-08-11T13:33:49.432Z,74443.53
2023-08-11T13:35:22.310Z,74449.47
2023-08-11T13:36:56.011Z,74443.53
2023-08-11T13:38:29.808Z,74433.66
2023-08-11T13:40:03.002Z,74431.69
2023-08-11T13:41:40.932Z,74433.66
2023-08-11T13:43:16.212Z,74429.72
2023-08-11T13:44:49.705Z,74409.94
2023-08-11T13:46:22.894Z,74457.38
2023-08-11T13:47:55.992Z,74469.22
2023-08-11T13:49:29.412Z,74451.44
2023-08-11T13:51:04.825Z,74489.00
2023-08-11T13:52:42.215Z,74479.13
2023-08-11T13:54:15.152Z,74485.03
2023-08-11T13:55:51.339Z,74475.16
2023-08-11T13:57:24.440Z,74481.09
2023-08-11T13:58:58.071Z,74477.13
2023-08-11T14:00:32.005Z,74487.03
2023-08-11T14:02:05.434Z,74500.84
2023-08-11T14:03:38.694Z,74481.09
2023-08-11T14:05:11.929Z,74492.94
2023-08-11T14:06:45.119Z,74496.91
2023-08-11T14:08:18.764Z,74496.91
2023-08-11T14:09:51.968Z,74481.09
2023-08-11T14:11:25.708Z,74506.78
2023-08-11T14:12:58.484Z,74489.00
2023-08-11T14:14:31.965Z,74520.63
2023-08-11T14:16:05.252Z,74500.84
2023-08-11T14:17:38.559Z,74506.78
2023-08-11T14:19:11.689Z,74526.53
2023-08-11T14:20:45.445Z,74530.50
2023-08-11T14:22:19.484Z,74558.16
2023-08-11T14:23:53.318Z,74575.97
2023-08-11T14:25:29.837Z,74577.94
2023-08-11T14:27:03.632Z,74581.88
2023-08-11T14:28:37.477Z,74587.81
2023-08-11T14:30:11.147Z,74595.72
2023-08-11T14:31:44.601Z,74593.75
2023-08-11T14:33:18.649Z,74607.59
2023-08-11T14:34:52.162Z,74607.59
2023-08-11T14:36:25.588Z,74627.34
2023-08-11T14:37:59.401Z,74637.22
2023-08-11T14:39:32.716Z,74625.38
2023-08-11T14:41:08.275Z,74639.19
2023-08-11T14:42:42.194Z,74639.19
2023-08-11T14:44:16.516Z,74641.19
2023-08-11T14:45:57.176Z,74643.16
2023-08-11T14:47:38.288Z,74645.13
2023-08-11T14:49:11.911Z,74670.81
2023-08-11T14:50:48.803Z,74678.72
2023-08-11T14:52:23.407Z,74688.63
2023-08-11T14:53:58.169Z,74684.66
2023-08-11T14:55:33.456Z,74690.59
2023-08-11T14:57:08.244Z,74702.44
2023-08-11T14:58:43.734Z,74714.31
2023-08-11T15:00:18.586Z,74718.25
2023-08-11T15:01:53.352Z,74718.25
2023-08-11T15:03:30.016Z,74726.16
2023-08-11T15:05:08.080Z,74741.97
2023-08-11T15:06:52.087Z,74741.97
2023-08-11T15:08:26.327Z,74759.75
2023-08-11T15:09:59.842Z,74761.75
2023-08-11T15:11:37.425Z,74783.47
2023-08-11T15:13:11.091Z,74765.69
2023-08-11T15:14:44.998Z,74771.63
2023-08-11T15:16:26.733Z,74779.53
2023-08-11T15:18:01.074Z,74787.44
2023-08-11T15:19:38.309Z,74787.44
2023-08-11T15:21:26.043Z,74801.28
2023-08-11T15:23:03.626Z,74825.00
2023-08-11T15:24:37.280Z,74813.13
2023-08-11T15:26:11.425Z,74823.00
2023-08-11T15:27:45.877Z,74826.97
2023-08-11T15:29:19.837Z,74830.91
2023-08-11T15:31:01.514Z,74844.75
2023-08-11T15:32:41.528Z,74848.72
2023-08-11T15:34:14.703Z,74848.72
2023-08-11T15:35:47.952Z,74876.38
2023-08-11T15:37:21.161Z,74884.28
2023-08-11T15:38:54.084Z,74884.28
2023-08-11T15:40:26.944Z,74894.16
2023-08-11T15:42:00.245Z,74892.19
2023-08-11T15:43:36.337Z,74898.13
2023-08-11T15:45:09.971Z,74913.94
2023-08-11T15:46:43.192Z,74913.94
2023-08-11T15:48:16.351Z,74919.88
2023-08-11T15:49:49.285Z,74925.78
2023-08-11T15:51:22.287Z,74937.66
2023-08-11T15:52:55.174Z,74937.66
2023-08-11T15:54:30.862Z,74947.53
2023-08-11T15:56:04.587Z,74955.44
2023-08-11T15:57:38.036Z,74963.34
2023-08-11T15:59:11.617Z,74967.31
2023-08-11T16:00:44.680Z,74965.31
2023-08-11T16:02:18.800Z,74979.16
2023-08-11T16:03:53.248Z,74983.13
2023-08-11T16:05:26.281Z,74987.06
2023-08-11T16:06:59.347Z,74991.03
2023-08-11T16:08:33.681Z,75002.88
2023-08-11T16:10:07.389Z,75002.88
2023-08-11T16:11:45.279Z,75004.84
2023-08-11T16:13:18.664Z,75006.84
2023-08-11T16:14:51.916Z,75018.69
2023-08-11T16:16:25.298Z,75016.72
2023-08-11T16:17:58.240Z,75034.50
2023-08-11T16:19:31.505Z,75038.47
2023-08-11T16:21:04.560Z,75042.41
2023-08-11T16:22:37.581Z,75050.31
2023-08-11T16:24:10.552Z,75044.38
2023-08-11T16:25:43.911Z,75054.28
2023-08-11T16:27:16.861Z,75052.31
2023-08-11T16:28:49.813Z,75064.16
2023-08-11T16:30:22.812Z,75064.16
2023-08-11T16:31:55.772Z,75074.03
2023-08-11T16:33:28.854Z,75074.03
2023-08-11T16:35:02.283Z,75078.00
2023-08-11T16:36:39.066Z,75091.84
2023-08-11T16:38:12.232Z,75089.84
2023-08-11T16:39:46.367Z,75121.47
2023-08-11T16:41:20.824Z,75117.53
2023-08-11T16:42:53.557Z,75125.44
2023-08-11T16:44:26.579Z,75133.34
2023-08-11T16:45:59.685Z,75139.28
2023-08-11T16:47:32.963Z,75141.25
2023-08-11T16:49:05.891Z,75155.09
2023-08-11T16:50:39.218Z,75163.00
2023-08-11T16:52:12.626Z,75164.97
2023-08-11T16:53:46.266Z,75172.88
2023-08-11T16:55:19.142Z,75184.72
2023-08-11T16:56:52.630Z,75180.78
2023-08-11T16:58:25.780Z,75190.66
2023-08-11T16:59:58.637Z,75188.69
2023-08-11T17:01:31.492Z,75192.63
2023-08-11T17:03:05.903Z,75196.59
2023-08-11T17:04:39.309Z,75200.53
2023-08-11T17:06:16.307Z,75200.53
2023-08-11T17:07:49.230Z,75202.53
2023-08-11T17:09:22.207Z,75202.53
2023-08-11T17:10:55.223Z,75210.44
2023-08-11T17:12:28.253Z,75208.47
2023-08-11T17:14:01.472Z,75212.41
2023-08-11T17:15:34.788Z,75216.38
2023-08-11T17:17:08.041Z,75220.31
2023-08-11T17:18:41.033Z,75224.28
2023-08-11T17:20:15.197Z,75232.19
2023-08-11T17:21:48.316Z,75230.19
2023-08-11T17:23:21.339Z,75232.19
2023-08-11T17:24:54.376Z,75238.09
2023-08-11T17:26:27.403Z,75242.06
2023-08-11T17:28:00.562Z,75246.00
2023-08-11T17:29:36.789Z,75255.91
2023-08-11T17:31:10.023Z,75255.91
2023-08-11T17:32:44.133Z,75263.81
2023-08-11T17:34:17.205Z,75269.72
2023-08-11T17:35:50.297Z,75267.75
2023-08-11T17:37:23.541Z,75273.69
2023-08-11T17:39:00.681Z,75283.56
2023-08-11T17:40:34.081Z,75295.44
2023-08-11T17:42:08.903Z,75283.56
2023-08-11T17:43:42.041Z,75287.53
2023-08-11T17:45:14.996Z,75291.47
2023-08-11T17:46:48.212Z,75291.47
2023-08-11T17:48:21.261Z,75287.53
2023-08-11T17:49:54.167Z,75295.44
2023-08-11T17:51:27.179Z,75297.41
2023-08-11T17:52:59.956Z,75299.38
2023-08-11T17:54:33.027Z,75305.31
2023-08-11T17:56:06.098Z,75299.38
2023-08-11T17:57:39.293Z,75307.28
2023-08-11T17:59:12.479Z,75313.22
2023-08-11T18:00:45.764Z,75315.19
2023-08-11T18:02:18.669Z,75319.16
2023-08-11T18:03:51.652Z,75319.16
2023-08-11T18:05:24.935Z,75325.09
2023-08-11T18:06:57.858Z,75331.00
2023-08-11T18:08:30.766Z,75327.06
2023-08-11T18:10:04.461Z,75340.91
2023-08-11T18:11:38.221Z,75346.81
2023-08-11T18:13:11.254Z,75338.91
2023-08-11T18:14:57.441Z,75342.88
2023-08-11T18:16:30.548Z,75338.91
2023-08-11T18:18:04.348Z,75340.91
2023-08-11T18:19:37.325Z,75342.88
2023-08-11T18:21:19.959Z,75346.81
2023-08-11T18:22:54.167Z,75346.81
2023-08-11T18:24:27.140Z,75346.81
2023-08-11T18:25:59.993Z,75350.78
2023-08-11T18:27:34.252Z,75346.81
2023-08-11T18:29:07.578Z,75356.72